Forside
METAR-TAF:

METAR-TAF

Lufthavne :

Oscoda-Wurtsmith Airport

Oscoda, Michigan, USA

Breddekreds: 44-27N, længdekreds: 083-22W, højde: 193 m

Aktuelle vejr

Denne rapport blev lavet for 32 minutter siden, kl. 17:15 UTC
Vind 14 kt fra sydsydvest med vindstød på up til 18 kt
Temperatur 6°C
Fugtighed 52%
Tryk 1011 hPa
Sigt: 16.1 km
skyfri

METAR: KOSC 231715Z AUTO 21014G18KT 10SM CLR 06/M03 A2984 RMK AO2 T00551033

Tid: 12:47 (17:47 UTC)


TAF: fraværende

Vejrobservationer og prognoser fra mere end 4000 lufthavne (METAR og TAF).

De gule og røde prikker repræsenterer de meteorologiske stationer.

Flyt musen over at se navnet på stationen.

Så klik over at se vejr observationer og prognoser.

At skifte det kort: Klik på de grønne knapper med et sort kors for at zoome ind; på den grønne knap med en bindestreg for at zoome ud; eller på de grønne pile for tilstødende kort.


METAR-TAF: